Time;durP1;ratioP1;P1;durP2;ratioP2;P2;SDS_P1;SDS_P2;PMS_P1;PMS_P2;Temp;Humidity;BMP_temperature;BMP_pressure;BME280_temperature;BME280_humidity;BME280_pressure;Samples;Min_cycle;Max_cycle;Signal;HPM_P1;HPM_P2
2022/12/02 00:01:14;;;;;;;84.70;33.70;;;7.50;99.90;;;;;;4163538;28;20183;-91
2022/12/02 00:03:18;;;;;;;81.97;34.50;;;7.60;99.90;;;;;;4147267;28;20216;-89
2022/12/02 00:05:32;;;;;;;82.97;35.33;;;7.60;99.90;;;;;;4147491;28;20188;-89
2022/12/02 00:07:32;;;;;;;85.13;34.57;;;7.60;99.90;;;;;;4147557;28;20207;-91
2022/12/02 00:09:34;;;;;;;85.50;35.47;;;7.50;99.90;;;;;;4163523;28;20172;-92
2022/12/02 00:11:35;;;;;;;91.07;35.60;;;7.60;99.90;;;;;;4167210;28;20672;-88
2022/12/02 00:13:42;;;;;;;86.80;36.83;;;7.70;99.90;;;;;;4150573;28;20212;-88
2022/12/02 00:15:44;;;;;;;83.60;34.97;;;7.60;99.90;;;;;;4150716;28;20259;-88
2022/12/02 00:17:45;;;;;;;94.63;36.40;;;7.50;99.90;;;;;;4167102;28;20164;-89
2022/12/02 00:19:45;;;;;;;91.13;35.37;;;7.60;99.90;;;;;;4150416;28;20180;-90
2022/12/02 00:21:49;;;;;;;93.80;35.90;;;7.60;99.90;;;;;;4183691;28;20195;-89
2022/12/02 00:23:49;;;;;;;93.10;36.53;;;7.50;99.90;;;;;;4150252;28;20685;-89
2022/12/02 00:25:52;;;;;;;88.53;35.53;;;7.60;99.90;;;;;;4150532;28;20177;-89
2022/12/02 00:27:53;;;;;;;89.30;35.70;;;7.50;99.90;;;;;;4166665;28;20183;-88
2022/12/02 00:29:54;;;;;;;92.07;36.47;;;7.40;99.90;;;;;;4166924;28;20208;-89
2022/12/02 00:31:55;;;;;;;95.97;37.37;;;7.40;99.90;;;;;;4150251;28;20204;-89
2022/12/02 00:33:57;;;;;;;90.73;37.27;;;7.30;99.90;;;;;;4150379;28;20173;-92
2022/12/02 00:35:57;;;;;;;95.10;37.60;;;7.30;99.90;;;;;;4150671;28;20179;-91
2022/12/02 00:37:58;;;;;;;97.90;39.63;;;7.20;99.90;;;;;;4167454;28;20208;-89
2022/12/02 00:39:59;;;;;;;102.47;37.83;;;7.20;99.90;;;;;;4167147;28;20264;-91
2022/12/02 00:42:00;;;;;;;94.30;37.27;;;7.20;99.90;;;;;;4150859;28;20172;-89
2022/12/02 00:46:32;;;;;;;92.97;36.43;;;7.20;99.90;;;;;;4166894;28;20259;-91
2022/12/02 00:48:33;;;;;;;95.03;37.10;;;7.30;99.90;;;;;;4166660;28;20242;-89
2022/12/02 00:50:33;;;;;;;97.17;37.43;;;7.40;99.90;;;;;;4150164;28;20185;-89
2022/12/02 00:52:34;;;;;;;97.30;38.67;;;7.40;99.90;;;;;;4166600;28;20199;-90
2022/12/02 00:54:35;;;;;;;92.73;37.50;;;7.30;99.90;;;;;;4150262;28;20675;-90
2022/12/02 00:56:36;;;;;;;91.80;36.20;;;7.20;99.90;;;;;;4183071;28;20174;-90
2022/12/02 00:58:37;;;;;;;98.80;36.60;;;7.10;99.90;;;;;;4167629;28;20257;-88
2022/12/02 01:00:38;;;;;;;87.70;34.80;;;6.90;99.90;;;;;;4166697;28;20168;-89
2022/12/02 01:02:39;;;;;;;94.23;37.30;;;6.80;99.90;;;;;;4149652;28;20212;-90
2022/12/02 01:04:39;;;;;;;98.23;37.67;;;6.70;99.90;;;;;;4166087;28;20290;-89
2022/12/02 01:06:40;;;;;;;89.03;36.87;;;7.00;99.90;;;;;;4166756;28;20219;-90
2022/12/02 01:08:41;;;;;;;92.73;35.43;;;7.20;99.90;;;;;;4150251;28;20196;-89
2022/12/02 01:10:42;;;;;;;90.03;35.60;;;7.10;99.90;;;;;;4166888;28;20561;-90
2022/12/02 01:12:42;;;;;;;89.63;35.47;;;6.80;99.90;;;;;;4166700;28;20184;-89
2022/12/02 01:14:43;;;;;;;89.20;34.17;;;6.90;99.90;;;;;;4166318;28;20231;-88
2022/12/02 01:16:44;;;;;;;87.83;36.23;;;6.90;99.90;;;;;;4166477;28;20168;-88
2022/12/02 01:18:44;;;;;;;86.10;35.80;;;7.30;99.90;;;;;;4166305;28;20180;-92
2022/12/02 01:20:45;;;;;;;96.27;36.70;;;7.40;99.90;;;;;;4149749;28;20546;-89
2022/12/02 01:22:46;;;;;;;82.87;33.50;;;7.80;99.90;;;;;;4164936;28;20219;-89
2022/12/02 01:24:46;;;;;;;93.77;36.57;;;8.00;99.90;;;;;;4149898;28;20565;-89
2022/12/02 01:26:47;;;;;;;90.50;36.20;;;8.00;99.90;;;;;;4166113;28;20176;-89
2022/12/02 01:28:49;;;;;;;93.73;36.67;;;8.00;99.90;;;;;;4165914;28;20668;-90
2022/12/02 01:30:50;;;;;;;97.03;37.77;;;7.80;99.90;;;;;;4150019;28;20180;-89
2022/12/02 01:32:51;;;;;;;97.10;36.90;;;7.70;99.90;;;;;;4165727;28;20194;-90
2022/12/02 01:34:51;;;;;;;102.90;39.93;;;7.60;99.90;;;;;;4166102;28;20204;-89
2022/12/02 01:36:52;;;;;;;101.83;38.10;;;7.60;99.90;;;;;;4166019;28;20180;-89
2022/12/02 01:38:52;;;;;;;94.60;37.50;;;7.50;99.90;;;;;;4165839;28;20218;-89
2022/12/02 01:40:53;;;;;;;98.07;37.83;;;7.40;99.90;;;;;;4165844;28;20203;-89
2022/12/02 01:42:54;;;;;;;91.57;37.30;;;7.30;99.90;;;;;;4165847;28;20216;-91
2022/12/02 01:44:55;;;;;;;99.13;35.67;;;7.10;99.90;;;;;;4165835;28;20203;-89
2022/12/02 01:46:56;;;;;;;91.03;35.60;;;6.80;99.90;;;;;;4165501;28;20168;-88
2022/12/02 01:48:58;;;;;;;90.07;34.83;;;6.60;99.90;;;;;;4149163;28;20268;-90
2022/12/02 01:50:58;;;;;;;81.37;34.00;;;6.40;99.90;;;;;;4165705;28;20172;-89
2022/12/02 01:53:00;;;;;;;80.20;33.60;;;6.40;99.90;;;;;;4165874;28;20176;-89
2022/12/02 01:55:00;;;;;;;82.17;35.43;;;6.30;99.90;;;;;;4165924;28;20192;-91
2022/12/02 01:57:01;;;;;;;81.63;31.03;;;6.10;99.90;;;;;;4149527;28;20169;-90
2022/12/02 01:59:02;;;;;;;80.57;33.40;;;6.00;99.90;;;;;;4182212;28;20167;-91
2022/12/02 02:01:20;;;;;;;75.73;31.67;;;5.90;99.90;;;;;;4149071;28;20271;-89
2022/12/02 02:03:21;;;;;;;76.10;31.83;;;5.80;99.90;;;;;;4165344;28;20251;-91
2022/12/02 02:05:26;;;;;;;82.37;33.87;;;5.80;99.90;;;;;;4148925;28;20284;-89
2022/12/02 02:07:29;;;;;;;86.70;35.63;;;6.00;99.90;;;;;;4149049;28;20177;-90
2022/12/02 02:09:30;;;;;;;87.03;33.80;;;6.00;99.90;;;;;;4165415;28;20168;-89
2022/12/02 02:11:36;;;;;;;92.03;35.37;;;5.90;99.90;;;;;;4165002;28;20180;-88
2022/12/02 02:13:37;;;;;;;83.03;34.20;;;5.80;99.90;;;;;;4148700;28;20204;-89
2022/12/02 02:15:40;;;;;;;81.93;35.30;;;6.00;99.90;;;;;;4165551;28;20223;-89
2022/12/02 02:17:42;;;;;;;96.70;36.87;;;6.10;99.90;;;;;;4165105;28;20185;-92
2022/12/02 02:19:43;;;;;;;90.70;35.90;;;6.20;99.90;;;;;;4165300;28;20164;-89
2022/12/02 02:21:48;;;;;;;90.47;36.43;;;6.20;99.90;;;;;;4165119;28;20191;-91
2022/12/02 02:23:50;;;;;;;96.90;38.63;;;6.20;99.90;;;;;;4148574;28;20267;-91
2022/12/02 02:25:55;;;;;;;94.10;36.63;;;6.10;99.90;;;;;;4148796;28;20573;-89
2022/12/02 02:28:00;;;;;;;95.33;37.30;;;6.00;99.90;;;;;;4165018;28;20661;-90
2022/12/02 02:30:04;;;;;;;96.80;36.63;;;5.80;99.90;;;;;;4165069;28;20164;-89
2022/12/02 02:32:05;;;;;;;96.67;37.03;;;6.20;99.90;;;;;;4165061;28;20179;-88
2022/12/02 02:34:06;;;;;;;101.53;39.63;;;6.60;99.90;;;;;;4148099;28;20188;-89
2022/12/02 02:36:07;;;;;;;104.73;37.43;;;6.60;99.90;;;;;;4148710;28;20235;-89
2022/12/02 02:38:11;;;;;;;102.07;38.63;;;6.40;99.90;;;;;;4164849;28;20172;-89
2022/12/02 02:40:15;;;;;;;102.77;39.23;;;6.40;99.90;;;;;;4148086;28;20661;-89
2022/12/02 02:42:17;;;;;;;105.00;38.23;;;6.50;99.90;;;;;;4148236;28;20699;-89
2022/12/02 02:44:18;;;;;;;99.30;38.07;;;6.40;99.90;;;;;;4148275;28;20200;-89
2022/12/02 02:46:19;;;;;;;94.63;37.23;;;6.20;99.90;;;;;;4148361;28;20176;-89
2022/12/02 02:48:20;;;;;;;102.73;39.23;;;6.10;99.90;;;;;;4148145;28;20181;-89
2022/12/02 02:50:22;;;;;;;109.97;39.37;;;5.90;99.90;;;;;;4148357;28;20157;-88
2022/12/02 02:52:23;;;;;;;89.23;36.97;;;5.50;99.90;;;;;;4148329;28;20169;-89
2022/12/02 02:54:24;;;;;;;101.13;37.20;;;5.60;99.90;;;;;;4148625;28;20700;-91
2022/12/02 02:56:25;;;;;;;98.77;37.27;;;5.70;99.90;;;;;;4164682;28;20533;-89
2022/12/02 02:58:27;;;;;;;96.70;37.10;;;6.00;99.90;;;;;;4164467;28;20220;-91
2022/12/02 03:00:28;;;;;;;99.93;35.63;;;5.90;99.90;;;;;;4148239;28;20169;-89
2022/12/02 03:02:29;;;;;;;98.87;37.67;;;5.90;99.90;;;;;;4147922;28;20541;-92
2022/12/02 03:04:30;;;;;;;88.60;35.20;;;5.90;99.90;;;;;;4180882;28;20284;-92
2022/12/02 03:06:34;;;;;;;94.77;35.00;;;6.20;99.90;;;;;;4148414;28;20181;-89
2022/12/02 03:08:38;;;;;;;87.17;36.40;;;6.40;99.90;;;;;;4164668;28;20233;-88
2022/12/02 03:10:39;;;;;;;98.73;37.50;;;6.30;99.90;;;;;;4164322;28;20172;-89
2022/12/02 03:12:40;;;;;;;100.63;36.77;;;6.70;99.90;;;;;;4164743;28;20176;-89
2022/12/02 03:14:41;;;;;;;99.20;38.27;;;6.70;99.90;;;;;;4180702;28;20187;-89
2022/12/02 03:16:44;;;;;;;95.20;37.67;;;6.60;99.90;;;;;;4147885;28;20226;-89
2022/12/02 03:18:46;;;;;;;97.17;35.43;;;6.60;99.90;;;;;;4164491;28;20172;-89
2022/12/02 03:20:47;;;;;;;90.90;34.87;;;6.20;99.90;;;;;;4164243;28;20214;-88
2022/12/02 03:22:48;;;;;;;101.97;35.70;;;6.30;99.90;;;;;;4164104;28;20691;-91
2022/12/02 03:24:50;;;;;;;95.57;36.63;;;6.30;99.90;;;;;;4147972;28;20235;-91
2022/12/02 03:26:50;;;;;;;100.60;37.00;;;6.30;99.90;;;;;;4180614;28;20564;-88
2022/12/02 03:28:52;;;;;;;98.30;36.47;;;6.40;99.90;;;;;;4147818;28;20698;-89
2022/12/02 03:30:54;;;;;;;95.67;36.03;;;6.40;99.90;;;;;;4147709;28;20192;-90
2022/12/02 03:32:54;;;;;;;100.07;37.77;;;6.40;99.90;;;;;;4147690;28;20208;-89
2022/12/02 03:34:55;;;;;;;106.10;38.20;;;6.50;99.90;;;;;;4163429;28;20679;-89
2022/12/02 03:36:57;;;;;;;101.80;36.67;;;6.70;99.90;;;;;;4163864;28;20184;-90
2022/12/02 03:38:58;;;;;;;95.00;36.07;;;6.70;99.90;;;;;;4148024;28;20169;-89
2022/12/02 03:41:01;;;;;;;104.73;37.70;;;6.60;99.90;;;;;;4147383;28;20235;-89
2022/12/02 03:43:03;;;;;;;114.57;38.30;;;6.60;99.90;;;;;;4163886;28;20227;-91
2022/12/02 03:45:05;;;;;;;107.37;38.10;;;6.60;99.90;;;;;;4163588;28;20191;-90
2022/12/02 03:47:06;;;;;;;114.23;39.00;;;6.50;99.90;;;;;;4163683;28;20537;-89
2022/12/02 03:49:08;;;;;;;114.43;38.77;;;6.30;99.90;;;;;;4163708;28;20182;-89
2022/12/02 03:51:10;;;;;;;113.53;39.73;;;6.60;99.90;;;;;;4163941;28;20182;-91
2022/12/02 03:53:11;;;;;;;101.77;38.13;;;6.70;99.90;;;;;;4147544;28;20180;-89
2022/12/02 03:55:12;;;;;;;119.10;41.33;;;6.80;99.90;;;;;;4163661;28;20196;-89
2022/12/02 03:57:12;;;;;;;111.03;40.03;;;6.80;99.90;;;;;;4163923;28;20160;-89
2022/12/02 03:59:26;;;;;;;116.73;38.63;;;6.80;99.90;;;;;;4147486;28;20272;-89
2022/12/02 04:01:27;;;;;;;95.83;37.23;;;6.60;99.90;;;;;;4147811;28;20185;-90
2022/12/02 04:03:28;;;;;;;106.17;38.60;;;6.40;99.90;;;;;;4147239;28;20262;-90
2022/12/02 04:05:29;;;;;;;115.10;39.90;;;6.60;99.90;;;;;;4147472;28;20193;-89
2022/12/02 04:07:30;;;;;;;111.27;39.60;;;6.70;99.90;;;;;;4147438;28;20537;-89
2022/12/02 04:09:30;;;;;;;114.07;38.93;;;6.70;99.90;;;;;;4147274;28;20173;-89
2022/12/02 04:11:31;;;;;;;108.77;39.70;;;6.50;99.90;;;;;;4163501;28;20597;-89
2022/12/02 04:13:32;;;;;;;110.33;39.77;;;6.60;99.90;;;;;;4163692;28;20182;-89
2022/12/02 04:15:32;;;;;;;108.87;37.80;;;6.50;99.90;;;;;;4163502;28;20184;-90
2022/12/02 04:17:33;;;;;;;102.33;36.27;;;6.60;99.90;;;;;;4147606;28;20188;-90
2022/12/02 04:19:35;;;;;;;108.47;39.23;;;6.70;99.90;;;;;;4163765;28;20226;-89
2022/12/02 04:21:35;;;;;;;106.37;38.30;;;6.80;99.90;;;;;;4163803;28;20196;-89
2022/12/02 04:23:36;;;;;;;99.63;36.67;;;6.80;99.90;;;;;;4147234;28;20271;-89
2022/12/02 04:25:37;;;;;;;102.17;37.67;;;6.80;99.90;;;;;;4147285;28;20196;-89
2022/12/02 04:27:37;;;;;;;95.47;37.07;;;7.00;99.90;;;;;;4163872;28;20572;-89
2022/12/02 04:29:38;;;;;;;108.40;39.00;;;7.10;99.90;;;;;;4163640;28;20180;-90
2022/12/02 04:31:39;;;;;;;103.47;39.40;;;7.10;99.90;;;;;;4163329;28;20311;-90
2022/12/02 04:33:39;;;;;;;106.40;40.07;;;7.00;99.90;;;;;;4163531;28;20168;-88
2022/12/02 04:35:40;;;;;;;108.97;40.73;;;6.90;99.90;;;;;;4147096;28;20173;-89
2022/12/02 04:37:41;;;;;;;120.00;41.10;;;6.80;99.90;;;;;;4147195;28;20177;-89
2022/12/02 04:39:41;;;;;;;118.37;40.83;;;6.80;99.90;;;;;;4163773;28;20232;-89
2022/12/02 04:41:42;;;;;;;109.50;40.03;;;6.80;99.90;;;;;;4163259;28;20621;-89
2022/12/02 04:43:43;;;;;;;108.80;39.63;;;6.80;99.90;;;;;;4163403;28;20421;-90
2022/12/02 04:45:43;;;;;;;132.90;42.80;;;6.80;99.90;;;;;;4146935;28;20248;-90
2022/12/02 04:47:44;;;;;;;125.00;44.03;;;6.70;99.90;;;;;;4163616;28;20537;-88
2022/12/02 04:49:45;;;;;;;132.53;42.60;;;6.60;99.90;;;;;;4147059;28;20180;-91
2022/12/02 04:51:45;;;;;;;118.80;43.10;;;6.50;99.90;;;;;;4147211;28;20700;-90
2022/12/02 04:53:46;;;;;;;128.17;43.17;;;6.50;99.90;;;;;;4163154;28;20196;-89
2022/12/02 04:55:47;;;;;;;145.10;45.23;;;6.30;99.90;;;;;;4163656;28;20184;-90
2022/12/02 04:57:47;;;;;;;139.33;44.97;;;6.20;99.90;;;;;;4166315;28;20176;-89
2022/12/02 04:59:48;;;;;;;144.30;46.97;;;6.30;99.90;;;;;;4166297;28;20160;-89
2022/12/02 05:01:49;;;;;;;141.47;47.03;;;6.30;99.90;;;;;;4149983;28;20188;-89
2022/12/02 05:03:49;;;;;;;142.57;46.77;;;6.40;99.90;;;;;;4165893;28;20212;-88
2022/12/02 05:05:50;;;;;;;140.50;45.70;;;6.40;99.90;;;;;;4149864;28;20264;-90
2022/12/02 05:07:51;;;;;;;149.03;47.90;;;6.40;99.90;;;;;;4166138;28;20176;-89
2022/12/02 05:09:51;;;;;;;136.60;46.47;;;6.40;99.90;;;;;;4149868;28;20176;-89
2022/12/02 05:11:52;;;;;;;138.10;48.07;;;6.40;99.90;;;;;;4149765;28;20177;-90
2022/12/02 05:13:53;;;;;;;138.20;46.73;;;6.40;99.90;;;;;;4166152;28;20227;-90
2022/12/02 05:15:53;;;;;;;146.67;47.90;;;6.40;99.90;;;;;;4166203;28;20674;-90
2022/12/02 05:17:54;;;;;;;147.50;47.47;;;6.50;99.90;;;;;;4166024;28;20176;-89
2022/12/02 05:19:54;;;;;;;143.30;46.87;;;6.60;99.90;;;;;;4165956;28;20180;-89
2022/12/02 05:21:55;;;;;;;144.13;46.90;;;6.70;99.90;;;;;;4165734;28;20217;-89
2022/12/02 05:23:56;;;;;;;141.53;48.63;;;6.80;99.90;;;;;;4149713;28;20180;-89
2022/12/02 05:25:56;;;;;;;142.73;47.60;;;6.80;99.90;;;;;;4165760;28;20176;-90
2022/12/02 05:27:57;;;;;;;143.73;47.10;;;6.70;99.90;;;;;;4149344;28;20177;-90
2022/12/02 05:29:58;;;;;;;154.03;49.03;;;6.70;99.90;;;;;;4165706;28;20180;-89
2022/12/02 05:31:58;;;;;;;140.60;47.23;;;6.60;99.90;;;;;;4165814;28;20176;-91
2022/12/02 05:33:59;;;;;;;143.87;47.50;;;6.60;99.90;;;;;;4149675;28;20550;-88
2022/12/02 05:36:00;;;;;;;147.37;47.10;;;6.60;99.90;;;;;;4166034;28;20172;-89
2022/12/02 05:38:00;;;;;;;148.97;46.90;;;6.50;99.90;;;;;;4166177;28;20255;-89
2022/12/02 05:40:01;;;;;;;149.03;48.07;;;6.40;99.90;;;;;;4166126;28;20172;-89
2022/12/02 05:42:06;;;;;;;149.47;48.50;;;6.40;99.90;;;;;;4149654;28;20184;-89
2022/12/02 05:44:22;;;;;;;151.70;49.27;;;6.40;99.90;;;;;;4166238;28;20200;-91
2022/12/02 05:46:22;;;;;;;150.57;46.70;;;6.40;99.90;;;;;;4166020;28;20303;-89
2022/12/02 05:48:24;;;;;;;142.53;45.97;;;6.30;99.90;;;;;;4166450;28;20176;-88
2022/12/02 05:50:30;;;;;;;140.63;46.37;;;6.20;99.90;;;;;;4149611;28;20688;-89
2022/12/02 05:52:32;;;;;;;157.20;47.63;;;6.20;99.90;;;;;;4165674;28;20216;-89
2022/12/02 05:54:33;;;;;;;158.00;48.27;;;6.40;99.90;;;;;;4149329;28;20184;-89
2022/12/02 05:56:34;;;;;;;150.23;47.03;;;6.50;99.90;;;;;;4165310;28;20210;-88
2022/12/02 05:58:35;;;;;;;149.90;46.43;;;6.40;99.90;;;;;;4149151;28;20179;-89
2022/12/02 06:00:36;;;;;;;146.63;46.83;;;6.40;99.90;;;;;;4165633;28;20168;-88
2022/12/02 06:02:41;;;;;;;142.67;46.73;;;6.50;99.90;;;;;;4149446;28;20200;-89
2022/12/02 06:04:42;;;;;;;147.53;48.50;;;6.60;99.90;;;;;;4148797;28;20674;-90
2022/12/02 06:06:42;;;;;;;150.10;47.93;;;6.70;99.90;;;;;;4165599;28;20181;-89
2022/12/02 06:08:43;;;;;;;154.57;48.20;;;6.70;99.90;;;;;;4164671;28;20223;-90
2022/12/02 06:10:58;;;;;;;156.00;45.33;;;6.60;99.90;;;;;;4165193;28;20313;-89
2022/12/02 06:13:06;;;;;;;156.47;47.73;;;6.50;99.90;;;;;;4149422;28;20180;-88
2022/12/02 06:15:13;;;;;;;144.57;45.13;;;6.50;99.90;;;;;;4149779;28;20215;-91
2022/12/02 06:17:17;;;;;;;158.13;47.47;;;6.50;99.90;;;;;;4182692;28;20263;-88
2022/12/02 06:19:29;;;;;;;154.07;47.57;;;6.50;99.90;;;;;;4149709;28;20211;-90
2022/12/02 06:21:30;;;;;;;150.93;46.93;;;6.40;99.90;;;;;;4166600;28;20187;-90
2022/12/02 06:23:31;;;;;;;156.47;48.70;;;6.40;99.90;;;;;;4149542;28;20220;-91
2022/12/02 06:25:32;;;;;;;164.33;48.50;;;6.30;99.90;;;;;;4165936;28;20641;-89
2022/12/02 06:27:33;;;;;;;163.53;49.03;;;6.20;99.90;;;;;;4149639;28;20177;-88
2022/12/02 06:29:34;;;;;;;153.10;46.30;;;6.20;99.90;;;;;;4182459;28;20255;-89
2022/12/02 06:31:37;;;;;;;169.70;50.83;;;6.30;99.90;;;;;;4165980;28;20176;-92
2022/12/02 06:33:39;;;;;;;157.80;49.40;;;6.30;99.90;;;;;;4149292;28;20189;-88
2022/12/02 06:35:40;;;;;;;165.80;52.77;;;6.30;99.90;;;;;;4165822;28;20172;-88
2022/12/02 06:37:42;;;;;;;165.53;49.43;;;6.10;99.90;;;;;;4149576;28;20199;-88
2022/12/02 06:39:46;;;;;;;173.30;48.97;;;6.10;99.90;;;;;;4165658;28;20176;-88
2022/12/02 06:41:48;;;;;;;181.50;51.90;;;6.10;99.90;;;;;;4165791;28;20267;-90
2022/12/02 06:46:18;;;;;;;180.03;51.97;;;6.00;99.90;;;;;;4182052;28;20175;-87
2022/12/02 06:48:35;;;;;;;181.87;51.50;;;5.90;99.90;;;;;;4149019;28;20184;-88
2022/12/02 06:50:41;;;;;;;191.27;52.57;;;5.90;99.90;;;;;;4165504;28;20183;-88
2022/12/02 06:52:45;;;;;;;182.53;51.60;;;5.90;99.90;;;;;;4165646;28;20173;-88
2022/12/02 06:54:45;;;;;;;156.30;47.53;;;5.80;99.90;;;;;;4149292;28;20243;-88
2022/12/02 06:56:48;;;;;;;198.20;52.43;;;5.80;99.90;;;;;;4165645;28;20184;-87
2022/12/02 06:58:59;;;;;;;186.50;52.70;;;5.60;99.90;;;;;;4165714;28;20184;-86
2022/12/02 07:01:18;;;;;;;191.23;50.43;;;5.60;99.90;;;;;;4149188;28;20185;-87
2022/12/02 07:03:29;;;;;;;189.07;50.93;;;5.60;99.90;;;;;;4165420;28;20242;-88
2022/12/02 07:05:30;;;;;;;192.93;53.13;;;5.70;99.90;;;;;;4165270;28;20200;-87
2022/12/02 07:07:33;;;;;;;204.63;54.00;;;5.60;99.90;;;;;;4149300;28;20180;-88
2022/12/02 07:09:37;;;;;;;192.30;53.23;;;5.70;99.90;;;;;;4165469;28;20242;-88
2022/12/02 07:11:48;;;;;;;184.43;49.37;;;5.70;99.90;;;;;;4165190;28;20181;-88
2022/12/02 07:13:49;;;;;;;189.13;51.20;;;5.60;99.90;;;;;;4148723;28;20212;-88
2022/12/02 07:15:50;;;;;;;146.33;42.23;;;5.60;99.90;;;;;;4164779;28;20175;-87
2022/12/02 07:17:51;;;;;;;200.20;52.73;;;5.60;99.90;;;;;;4165116;28;20568;-91
2022/12/02 07:20:05;;;;;;;194.57;52.17;;;5.60;99.90;;;;;;4164418;28;20224;-90
2022/12/02 07:22:28;;;;;;;201.63;52.83;;;5.60;99.90;;;;;;4165107;28;20271;-88
2022/12/02 07:24:29;;;;;;;201.27;54.17;;;5.60;99.90;;;;;;4148873;28;20242;-87
2022/12/02 07:26:29;;;;;;;221.97;56.73;;;5.60;99.90;;;;;;4148525;28;20184;-88
2022/12/02 07:28:39;;;;;;;223.00;56.57;;;5.50;99.90;;;;;;4164638;28;20226;-87
2022/12/02 07:30:41;;;;;;;243.00;59.33;;;5.50;99.90;;;;;;4148593;28;20633;-89
2022/12/02 07:32:42;;;;;;;240.67;59.87;;;5.40;99.90;;;;;;4148692;28;20256;-88
2022/12/02 07:34:43;;;;;;;231.67;54.80;;;5.50;99.90;;;;;;4164693;28;20191;-89
2022/12/02 07:36:44;;;;;;;193.90;53.57;;;5.50;99.90;;;;;;4164801;28;20263;-86
2022/12/02 07:38:45;;;;;;;165.07;41.77;;;5.40;99.90;;;;;;4148515;28;20169;-88
2022/12/02 07:40:46;;;;;;;173.07;47.63;;;5.10;99.90;;;;;;4148302;28;20181;-90
2022/12/02 07:42:46;;;;;;;177.53;43.77;;;5.00;99.90;;;;;;4148249;28;20613;-88
2022/12/02 07:44:47;;;;;;;150.87;40.97;;;4.90;99.90;;;;;;4164387;28;20282;-88
2022/12/02 07:46:48;;;;;;;164.57;42.67;;;4.90;99.90;;;;;;4148337;28;20231;-88
2022/12/02 07:48:48;;;;;;;153.57;40.83;;;4.80;99.90;;;;;;4164528;28;20254;-87
2022/12/02 07:50:49;;;;;;;173.97;42.63;;;4.80;99.90;;;;;;4164647;28;20182;-91
2022/12/02 07:52:50;;;;;;;173.77;45.60;;;4.70;99.90;;;;;;4164677;28;20621;-92
2022/12/02 07:54:53;;;;;;;175.50;45.80;;;4.70;99.90;;;;;;4164563;28;20199;-90
2022/12/02 07:56:54;;;;;;;171.83;40.77;;;4.70;99.90;;;;;;4148290;28;20173;-89
2022/12/02 07:58:54;;;;;;;182.47;45.87;;;4.80;99.90;;;;;;4164569;28;20225;-88
2022/12/02 08:00:55;;;;;;;184.77;47.13;;;4.80;99.90;;;;;;4164706;28;20698;-89
2022/12/02 08:02:56;;;;;;;183.70;50.30;;;4.70;99.90;;;;;;4148149;28;20262;-91
2022/12/02 08:04:56;;;;;;;185.07;48.33;;;4.70;99.90;;;;;;4164472;28;20184;-88
2022/12/02 08:06:57;;;;;;;177.80;45.83;;;4.70;99.90;;;;;;4148431;28;20173;-90
2022/12/02 08:08:58;;;;;;;185.50;48.03;;;4.70;99.90;;;;;;4164529;28;20168;-91
2022/12/02 08:10:58;;;;;;;182.27;48.27;;;4.70;99.90;;;;;;4148185;28;20204;-91
2022/12/02 08:12:59;;;;;;;175.47;46.40;;;4.70;99.90;;;;;;4164553;28;20272;-88
2022/12/02 08:15:00;;;;;;;165.00;46.80;;;4.60;99.90;;;;;;4148130;28;20192;-88
2022/12/02 08:17:00;;;;;;;159.83;45.97;;;4.60;99.90;;;;;;4164591;28;20187;-90
2022/12/02 08:19:01;;;;;;;148.07;45.60;;;4.50;99.90;;;;;;4148139;28;20180;-90
2022/12/02 08:21:02;;;;;;;163.47;47.87;;;4.50;99.90;;;;;;4164502;28;20168;-88
2022/12/02 08:23:04;;;;;;;140.83;41.07;;;4.50;99.90;;;;;;4164480;28;20258;-90
2022/12/02 08:25:05;;;;;;;148.13;38.40;;;4.50;99.90;;;;;;4148213;28;20250;-88
2022/12/02 08:27:05;;;;;;;134.13;42.87;;;4.50;99.90;;;;;;4164417;28;20172;-89
2022/12/02 08:29:06;;;;;;;135.00;40.63;;;4.50;99.90;;;;;;4148127;28;20537;-89
2022/12/02 08:31:07;;;;;;;136.83;39.17;;;4.60;99.90;;;;;;4165434;28;20700;-87
2022/12/02 08:33:08;;;;;;;136.13;39.90;;;4.60;99.90;;;;;;4151509;28;20173;-88
2022/12/02 08:35:09;;;;;;;134.57;41.80;;;4.60;99.90;;;;;;4167454;28;20196;-87
2022/12/02 08:37:10;;;;;;;127.40;39.77;;;4.50;99.90;;;;;;4151355;28;20175;-89
2022/12/02 08:39:10;;;;;;;114.53;36.67;;;4.50;99.90;;;;;;4151116;28;20620;-88
2022/12/02 08:41:11;;;;;;;114.87;36.67;;;4.40;99.90;;;;;;4167541;28;20254;-89
2022/12/02 08:43:12;;;;;;;116.57;36.93;;;4.40;99.90;;;;;;4151006;28;20208;-88
2022/12/02 08:45:13;;;;;;;108.07;37.27;;;4.40;99.90;;;;;;4167408;28;20227;-88
2022/12/02 08:47:14;;;;;;;112.40;37.50;;;4.40;99.90;;;;;;4167417;28;20165;-87
2022/12/02 08:49:14;;;;;;;114.73;38.47;;;4.40;99.90;;;;;;4150987;28;20195;-90
2022/12/02 08:51:15;;;;;;;116.57;36.00;;;4.40;99.90;;;;;;4167314;28;20655;-88
2022/12/02 08:53:16;;;;;;;100.23;34.13;;;4.40;99.90;;;;;;4167532;28;20198;-86
2022/12/02 08:55:16;;;;;;;100.60;35.73;;;4.40;99.90;;;;;;4167275;28;20232;-87
2022/12/02 08:57:17;;;;;;;98.03;36.13;;;4.40;99.90;;;;;;4167334;28;20172;-88
2022/12/02 08:59:18;;;;;;;116.17;37.30;;;4.40;99.90;;;;;;4167134;28;20176;-88
2022/12/02 09:01:18;;;;;;;102.20;35.13;;;4.40;99.90;;;;;;4167383;28;20218;-87
2022/12/02 09:03:19;;;;;;;101.83;34.33;;;4.40;99.90;;;;;;4167176;28;20212;-87
2022/12/02 09:05:20;;;;;;;92.17;33.67;;;4.40;99.90;;;;;;4150978;28;20219;-87
2022/12/02 09:07:21;;;;;;;85.47;33.87;;;4.40;99.90;;;;;;4151076;28;20165;-89
2022/12/02 09:09:21;;;;;;;88.43;33.57;;;4.40;99.90;;;;;;4150852;28;20538;-88
2022/12/02 09:11:22;;;;;;;86.57;30.80;;;4.40;99.90;;;;;;4167082;28;20207;-87
2022/12/02 09:13:23;;;;;;;84.97;27.93;;;4.30;99.90;;;;;;4166904;28;20187;-87
2022/12/02 09:15:24;;;;;;;85.67;30.40;;;4.30;99.90;;;;;;4167037;28;20235;-90
2022/12/02 09:17:24;;;;;;;82.37;26.50;;;4.30;99.90;;;;;;4150739;28;20173;-90
2022/12/02 09:19:25;;;;;;;67.97;23.37;;;4.30;99.90;;;;;;4167090;28;20180;-90
2022/12/02 09:21:25;;;;;;;92.07;32.43;;;4.30;99.90;;;;;;4150622;28;20267;-89
2022/12/02 09:23:27;;;;;;;75.90;29.03;;;4.40;99.90;;;;;;4166898;28;20208;-88
2022/12/02 09:25:28;;;;;;;78.20;27.83;;;4.40;99.90;;;;;;4150720;28;20212;-87
2022/12/02 09:27:29;;;;;;;79.77;25.77;;;4.40;99.90;;;;;;4150608;28;20641;-87
2022/12/02 09:29:29;;;;;;;77.00;28.13;;;4.40;99.90;;;;;;4167010;28;20259;-88
2022/12/02 09:31:30;;;;;;;77.97;27.30;;;4.50;99.90;;;;;;4150696;28;20657;-87
2022/12/02 09:33:31;;;;;;;81.07;30.23;;;4.50;99.90;;;;;;4166711;28;20577;-88
2022/12/02 09:35:31;;;;;;;74.33;28.13;;;4.40;99.90;;;;;;4150401;28;20685;-87
2022/12/02 09:37:32;;;;;;;72.27;25.03;;;4.50;99.90;;;;;;4166610;28;20172;-88
2022/12/02 09:39:33;;;;;;;76.63;27.50;;;4.40;99.90;;;;;;4150233;28;20176;-87
2022/12/02 09:41:33;;;;;;;79.67;27.90;;;4.40;99.90;;;;;;4166542;28;20169;-87
2022/12/02 09:43:34;;;;;;;67.93;25.77;;;4.60;99.90;;;;;;4149224;28;20251;-87
2022/12/02 09:45:35;;;;;;;75.87;25.90;;;4.70;99.90;;;;;;4166540;28;20279;-89
2022/12/02 09:47:35;;;;;;;73.50;25.97;;;4.80;99.90;;;;;;4150382;28;20216;-89
2022/12/02 09:49:37;;;;;;;75.33;27.10;;;4.70;99.90;;;;;;4166437;28;20176;-87
2022/12/02 09:51:37;;;;;;;65.23;24.57;;;4.80;99.90;;;;;;4150125;28;20172;-90
2022/12/02 09:53:40;;;;;;;74.07;27.03;;;4.80;99.90;;;;;;4149828;28;20192;-87
2022/12/02 09:55:41;;;;;;;72.23;27.20;;;4.80;99.90;;;;;;4150012;28;20260;-87
2022/12/02 09:57:42;;;;;;;78.97;27.57;;;4.80;99.90;;;;;;4150057;28;20296;-88
2022/12/02 09:59:43;;;;;;;76.00;27.00;;;4.80;99.90;;;;;;4166492;28;20671;-90
2022/12/02 10:01:47;;;;;;;73.20;29.33;;;4.70;99.90;;;;;;4166324;28;20246;-87
2022/12/02 10:03:50;;;;;;;64.97;23.10;;;4.60;99.90;;;;;;4149671;28;20212;-87
2022/12/02 10:05:50;;;;;;;70.53;25.03;;;4.50;99.90;;;;;;4150050;28;20169;-91
2022/12/02 10:07:54;;;;;;;74.60;27.23;;;4.50;99.90;;;;;;4166142;28;20183;-87
2022/12/02 10:09:55;;;;;;;63.57;23.30;;;4.50;99.90;;;;;;4166286;28;20172;-87
2022/12/02 10:11:56;;;;;;;66.07;24.50;;;4.40;99.90;;;;;;4166230;28;20266;-89
2022/12/02 10:13:56;;;;;;;63.33;24.00;;;4.40;99.90;;;;;;4149508;28;20185;-87
2022/12/02 10:15:58;;;;;;;67.63;25.63;;;4.30;99.90;;;;;;4149794;28;20168;-88
2022/12/02 10:18:07;;;;;;;64.73;26.07;;;4.20;99.90;;;;;;4166279;28;20187;-87
2022/12/02 10:20:22;;;;;;;65.20;24.17;;;4.20;99.90;;;;;;4149527;28;20172;-88
2022/12/02 10:22:23;;;;;;;55.87;20.93;;;4.20;99.90;;;;;;4149646;28;20189;-87
2022/12/02 10:24:36;;;;;;;65.60;24.03;;;4.20;99.90;;;;;;4149417;28;20243;-89
2022/12/02 10:26:51;;;;;;;65.90;25.27;;;4.30;99.90;;;;;;4165938;28;20172;-89